Time;durP1;ratioP1;P1;durP2;ratioP2;P2;SDS_P1;SDS_P2;PMS_P1;PMS_P2;Temp;Humidity;BMP_temperature;BMP_pressure;BME280_temperature;BME280_humidity;BME280_pressure;Samples;Min_cycle;Max_cycle;Signal;HPM_P1;HPM_P2
2022/07/09 00:01:51;;;;;;;2.27;1.72;;;;;;;20.36;58.47;100239.10;1773422;80;21030;-70
2022/07/09 00:04:21;;;;;;;2.77;1.90;;;;;;;20.36;58.56;100241.88;1775261;80;21049;-69
2022/07/09 00:06:51;;;;;;;3.00;1.62;;;;;;;20.36;58.62;100234.93;1778804;80;21007;-70
2022/07/09 00:09:21;;;;;;;2.35;1.90;;;;;;;20.35;58.69;100239.66;1768765;80;21070;-68
2022/07/09 00:11:52;;;;;;;3.67;1.92;;;;;;;20.35;58.73;100238.81;1779321;80;21037;-70
2022/07/09 00:14:22;;;;;;;2.87;1.60;;;;;;;20.36;58.82;100240.49;1761553;80;21065;-69
2022/07/09 00:16:51;;;;;;;3.15;1.82;;;;;;;20.35;58.86;100233.25;1788611;80;21515;-70
2022/07/09 00:19:21;;;;;;;1.95;1.75;;;;;;;20.34;58.98;100231.02;1793135;80;21026;-70
2022/07/09 00:21:51;;;;;;;3.25;1.70;;;;;;;20.32;59.16;100229.05;1782307;80;21085;-70
2022/07/09 00:24:21;;;;;;;2.27;1.98;;;;;;;20.31;59.29;100235.73;1775948;80;21023;-70
2022/07/09 00:26:52;;;;;;;2.55;1.95;;;;;;;20.29;59.36;100232.38;1775601;80;21584;-69
2022/07/09 00:29:22;;;;;;;5.10;1.77;;;;;;;20.28;59.46;100239.05;1761776;80;21038;-70
2022/07/09 00:31:51;;;;;;;3.08;1.80;;;;;;;20.29;59.62;100239.33;1775726;80;21069;-68
2022/07/09 00:34:22;;;;;;;5.00;2.20;;;;;;;20.31;59.66;100237.12;1787924;80;21054;-70
2022/07/09 00:36:52;;;;;;;3.22;1.67;;;;;;;20.34;59.61;100229.63;1782325;80;21033;-70
2022/07/09 00:39:21;;;;;;;2.40;1.72;;;;;;;20.36;59.74;100223.80;1795110;80;21486;-71
2022/07/09 00:41:50;;;;;;;3.60;1.70;;;;;;;20.36;59.70;100223.24;1782455;80;21050;-69
2022/07/09 00:44:22;;;;;;;2.80;1.90;;;;;;;20.37;59.63;100217.97;1776846;80;21061;-70
2022/07/09 00:46:51;;;;;;;2.10;1.70;;;;;;;20.38;59.64;100219.64;1790702;80;21079;-71
2022/07/09 00:49:20;;;;;;;3.35;1.90;;;;;;;20.39;59.72;100224.13;1790728;79;21258;-68
2022/07/09 00:51:51;;;;;;;2.55;1.70;;;;;;;20.38;59.71;100216.86;1794055;80;20998;-68
2022/07/09 00:54:21;;;;;;;2.15;1.60;;;;;;;20.40;59.77;100211.89;1779224;79;21081;-69
2022/07/09 00:56:54;;;;;;;3.15;1.70;;;;;;;20.43;59.83;100218.32;1785864;79;21015;-69
2022/07/09 00:59:24;;;;;;;2.37;1.70;;;;;;;20.42;60.06;100215.25;1762053;80;21105;-69
2022/07/09 01:01:55;;;;;;;2.52;1.85;;;;;;;20.40;60.17;100217.46;1791025;80;21010;-69
2022/07/09 01:04:26;;;;;;;2.83;1.87;;;;;;;20.38;60.25;100212.69;1793530;80;21549;-70
2022/07/09 01:06:57;;;;;;;5.62;2.15;;;;;;;20.36;60.40;100219.07;1791838;80;21101;-70
2022/07/09 01:09:27;;;;;;;2.60;1.75;;;;;;;20.36;60.33;100213.50;1792898;80;21047;-71
2022/07/09 01:11:57;;;;;;;2.05;1.85;;;;;;;20.35;60.23;100211.83;1754239;80;21074;-70
2022/07/09 01:14:27;;;;;;;6.75;2.52;;;;;;;20.35;60.27;100212.38;1792965;80;21075;-70
2022/07/09 01:17:02;;;;;;;2.45;1.82;;;;;;;20.34;60.20;100212.93;1779508;80;20987;-69
2022/07/09 01:19:32;;;;;;;5.33;1.90;;;;;;;20.36;60.11;100216.84;1781367;80;21078;-70
2022/07/09 01:22:03;;;;;;;1.82;1.65;;;;;;;20.36;60.18;100212.11;1780720;80;20987;-70
2022/07/09 01:24:35;;;;;;;2.35;1.70;;;;;;;20.39;60.07;100217.70;1781966;79;21031;-71
2022/07/09 01:27:05;;;;;;;2.05;1.77;;;;;;;20.41;59.87;100212.73;1790602;80;21033;-70
2022/07/09 01:29:35;;;;;;;2.58;1.65;;;;;;;20.42;59.72;100212.47;1790992;80;21057;-71
2022/07/09 01:32:05;;;;;;;2.62;1.80;;;;;;;20.44;59.65;100210.25;1796256;80;21018;-70
2022/07/09 01:34:36;;;;;;;2.17;1.57;;;;;;;20.46;59.53;100212.77;1793596;79;21096;-72
2022/07/09 01:37:07;;;;;;;2.55;1.70;;;;;;;20.46;59.49;100215.00;1747045;80;21045;-70
2022/07/09 01:39:49;;;;;;;1.95;1.52;;;;;;;20.46;59.24;100215.00;1786864;80;21077;-71
2022/07/09 01:42:09;;;;;;;3.98;1.80;;;;;;;20.45;59.01;100206.37;1789049;80;21026;-70
2022/07/09 01:44:40;;;;;;;2.02;1.70;;;;;;;20.46;59.02;100208.59;1780904;80;21042;-68
2022/07/09 01:47:10;;;;;;;2.02;1.60;;;;;;;20.47;59.14;100208.88;1756343;80;21466;-71
2022/07/09 01:49:38;;;;;;;1.90;1.80;;;;;;;20.46;59.11;100203.87;1792894;80;21038;-69
2022/07/09 01:52:08;;;;;;;1.80;1.67;;;;;;;20.46;59.21;100203.87;1793124;80;21026;-70
2022/07/09 01:54:38;;;;;;;2.55;1.70;;;;;;;20.49;59.29;100198.32;1780581;80;21443;-70
2022/07/09 01:57:07;;;;;;;3.42;1.57;;;;;;;20.48;59.21;100186.34;1792709;80;21053;-70
2022/07/09 01:59:36;;;;;;;4.28;1.80;;;;;;;20.48;59.19;100191.08;1793952;80;21466;-70
2022/07/09 02:02:06;;;;;;;2.90;1.70;;;;;;;20.47;59.15;100196.36;1778707;80;21019;-69
2022/07/09 02:04:37;;;;;;;2.45;1.75;;;;;;;20.48;59.14;100198.88;1792470;80;21054;-69
2022/07/09 02:07:09;;;;;;;3.62;1.72;;;;;;;20.49;59.15;100201.10;1789880;80;21469;-69
2022/07/09 02:09:39;;;;;;;2.62;1.82;;;;;;;20.49;59.18;100203.33;1784501;80;21473;-70
2022/07/09 02:12:10;;;;;;;2.22;1.75;;;;;;;20.52;59.18;100207.52;1792844;79;21081;-69
2022/07/09 02:14:40;;;;;;;1.70;1.57;;;;;;;20.51;59.19;100207.23;1786473;80;21470;-73
2022/07/09 02:17:09;;;;;;;3.00;1.75;;;;;;;20.52;59.21;100207.52;1776204;80;21520;-69
2022/07/09 02:19:39;;;;;;;2.30;1.50;;;;;;;20.52;59.28;100208.36;1785517;80;20986;-69
2022/07/09 02:22:08;;;;;;;3.35;1.60;;;;;;;20.53;59.38;100209.20;1779441;80;21006;-69
2022/07/09 02:24:37;;;;;;;5.42;2.00;;;;;;;20.52;59.46;100216.72;1782123;80;21003;-70
2022/07/09 02:27:07;;;;;;;4.10;1.70;;;;;;;20.54;59.58;100229.81;1781854;80;21042;-70
2022/07/09 02:29:40;;;;;;;1.82;1.47;;;;;;;20.59;59.58;100251.28;1794318;80;21072;-70
2022/07/09 02:32:10;;;;;;;2.02;1.70;;;;;;;20.61;59.53;100264.94;1795597;80;21457;-70
2022/07/09 02:34:41;;;;;;;3.22;1.60;;;;;;;20.60;59.49;100298.05;1791814;78;21276;-69
2022/07/09 02:37:11;;;;;;;2.00;1.75;;;;;;;20.62;59.56;100311.16;1794867;79;21079;-71
2022/07/09 02:39:41;;;;;;;1.67;1.57;;;;;;;20.64;59.55;100318.69;1793667;80;21492;-70
2022/07/09 02:42:12;;;;;;;3.52;1.80;;;;;;;20.64;59.33;100314.52;1793384;79;21049;-71
2022/07/09 02:44:43;;;;;;;2.75;1.90;;;;;;;20.65;58.97;100295.31;1779863;80;21073;-70
2022/07/09 02:47:14;;;;;;;4.30;1.72;;;;;;;20.67;58.80;100286.14;1790898;80;21014;-72
2022/07/09 02:49:44;;;;;;;3.42;1.60;;;;;;;20.67;58.71;100288.37;1779191;80;21509;-69
2022/07/09 02:52:14;;;;;;;4.87;1.67;;;;;;;20.65;58.77;100277.21;1779293;79;21033;-72
2022/07/09 02:54:45;;;;;;;2.77;1.57;;;;;;;20.62;58.91;100273.57;1776290;80;21046;-69
2022/07/09 02:57:15;;;;;;;2.40;1.70;;;;;;;20.61;59.16;100288.59;1793710;80;21065;-69
2022/07/09 02:59:45;;;;;;;7.58;2.05;;;;;;;20.60;59.30;100290.54;1779264;80;21006;-69
2022/07/09 03:02:14;;;;;;;2.33;1.80;;;;;;;20.61;59.36;100301.13;1792846;80;21021;-70
2022/07/09 03:04:44;;;;;;;1.90;1.70;;;;;;;20.58;59.25;100308.91;1778670;80;21076;-69
2022/07/09 03:07:16;;;;;;;2.83;1.77;;;;;;;20.58;58.81;100310.30;1796083;80;21058;-70
2022/07/09 03:09:45;;;;;;;2.17;1.80;;;;;;;20.56;58.45;100316.68;1795050;80;20971;-69
2022/07/09 03:12:15;;;;;;;3.75;1.87;;;;;;;20.53;58.17;100317.77;1794872;80;20981;-69
2022/07/09 03:14:45;;;;;;;4.50;1.95;;;;;;;20.47;58.32;100316.88;1791070;80;21236;-70
2022/07/09 03:17:15;;;;;;;3.15;1.80;;;;;;;20.44;58.45;100316.02;1775644;80;20999;-70
2022/07/09 03:19:45;;;;;;;5.10;1.70;;;;;;;20.41;58.40;100325.45;1791909;80;21018;-70
2022/07/09 03:22:15;;;;;;;2.87;1.70;;;;;;;20.39;58.50;100322.94;1792623;80;21050;-69
2022/07/09 03:24:45;;;;;;;1.85;1.70;;;;;;;20.36;58.44;100333.17;1793663;80;21018;-70
2022/07/09 03:27:15;;;;;;;3.10;1.62;;;;;;;20.37;58.43;100340.42;1785181;79;21094;-70
2022/07/09 03:29:45;;;;;;;3.37;1.72;;;;;;;20.39;58.35;100336.84;1764318;80;21569;-68
2022/07/09 03:32:16;;;;;;;2.08;1.80;;;;;;;20.39;58.37;100338.23;1771379;80;20983;-68
2022/07/09 03:34:46;;;;;;;6.72;2.40;;;;;;;20.39;58.55;100346.59;1771599;80;21046;-70
2022/07/09 03:37:16;;;;;;;3.75;2.27;;;;;;;20.40;58.80;100341.86;1772009;80;20976;-70
2022/07/09 03:39:46;;;;;;;4.55;2.20;;;;;;;20.38;59.13;100347.66;1766209;80;20987;-69
2022/07/09 03:42:16;;;;;;;3.15;2.27;;;;;;;20.35;59.47;100355.15;1771573;80;21018;-69
2022/07/09 03:44:46;;;;;;;3.42;2.55;;;;;;;20.34;59.88;100359.03;1770888;80;21106;-70
2022/07/09 03:47:16;;;;;;;3.72;2.17;;;;;;;20.32;60.08;100347.33;1759177;80;21022;-71
2022/07/09 03:49:47;;;;;;;12.93;3.85;;;;;;;20.34;60.29;100352.08;1768296;80;21034;-71
2022/07/09 03:52:18;;;;;;;4.03;2.30;;;;;;;20.34;60.48;100347.90;1763683;80;21605;-69
2022/07/09 03:54:49;;;;;;;4.75;2.70;;;;;;;20.31;60.71;100339.23;1771175;80;21019;-70
2022/07/09 03:57:19;;;;;;;3.72;2.60;;;;;;;20.26;60.90;100343.65;1763734;80;20975;-68
2022/07/09 03:59:49;;;;;;;4.42;2.30;;;;;;;20.23;61.11;100343.34;1771543;80;21042;-70
2022/07/09 04:02:20;;;;;;;6.97;2.90;;;;;;;20.22;61.28;100343.89;1767176;80;21066;-71
2022/07/09 04:04:50;;;;;;;3.58;2.45;;;;;;;20.21;61.42;100346.94;1776566;80;21054;-69
2022/07/09 04:07:20;;;;;;;4.85;2.37;;;;;;;20.19;61.54;100351.92;1758587;80;21010;-70
2022/07/09 04:09:50;;;;;;;7.83;2.42;;;;;;;20.17;61.74;100352.73;1768240;80;21034;-68
2022/07/09 04:12:21;;;;;;;2.87;2.17;;;;;;;20.14;61.88;100354.62;1762131;80;21278;-69
2022/07/09 04:14:50;;;;;;;3.00;2.15;;;;;;;20.11;62.04;100352.36;1763557;80;21500;-70
2022/07/09 04:17:19;;;;;;;5.85;2.17;;;;;;;20.10;62.14;100350.68;1768319;80;21489;-70
2022/07/09 04:19:49;;;;;;;3.33;2.17;;;;;;;20.10;62.15;100361.25;1766917;80;20998;-71
2022/07/09 04:22:18;;;;;;;3.15;2.17;;;;;;;20.12;62.17;100354.88;1767137;80;21034;-70
2022/07/09 04:24:49;;;;;;;2.92;2.15;;;;;;;20.10;62.44;100359.86;1770968;81;21038;-71
2022/07/09 04:27:19;;;;;;;2.37;2.15;;;;;;;20.06;62.78;100359.26;1779779;80;20991;-69
2022/07/09 04:29:47;;;;;;;6.15;2.33;;;;;;;20.03;63.00;100359.78;1762233;80;21058;-69
2022/07/09 04:32:17;;;;;;;3.42;2.37;;;;;;;20.01;63.08;100356.42;1771586;80;20990;-69
2022/07/09 04:34:48;;;;;;;3.52;2.30;;;;;;;20.02;63.12;100354.77;1778662;80;21431;-69
2022/07/09 04:37:17;;;;;;;6.45;2.20;;;;;;;20.02;63.29;100360.88;1792824;79;21014;-70
2022/07/09 04:39:47;;;;;;;4.40;2.33;;;;;;;20.02;63.45;100353.93;1780410;80;21447;-70
2022/07/09 04:42:19;;;;;;;2.95;2.40;;;;;;;20.04;63.27;100348.94;1792484;80;21068;-70
2022/07/09 04:44:49;;;;;;;3.77;2.50;;;;;;;20.03;62.91;100345.33;1791096;80;21415;-69
2022/07/09 04:47:19;;;;;;;4.78;2.00;;;;;;;20.03;62.92;100336.14;1781284;80;21065;-69
2022/07/09 04:49:48;;;;;;;4.53;2.52;;;;;;;20.04;62.97;100320.58;1780788;80;21050;-69
2022/07/09 04:52:19;;;;;;;5.03;2.40;;;;;;;20.07;62.88;100317.83;1792173;80;21022;-68
2022/07/09 04:54:48;;;;;;;4.37;2.30;;;;;;;20.07;63.00;100313.66;1780421;80;21059;-69
2022/07/09 04:57:19;;;;;;;3.58;2.22;;;;;;;20.07;63.02;100304.75;1780190;80;21018;-69
2022/07/09 04:59:48;;;;;;;4.53;2.92;;;;;;;20.09;62.98;100296.98;1790788;80;20990;-69
2022/07/09 05:02:18;;;;;;;2.87;2.50;;;;;;;20.09;62.97;100293.37;1790566;80;21450;-70
2022/07/09 05:04:48;;;;;;;4.85;2.30;;;;;;;20.11;62.89;100288.37;1789385;80;20986;-70
2022/07/09 05:07:21;;;;;;;4.85;2.87;;;;;;;20.13;62.67;100279.22;1774622;80;21072;-70
2022/07/09 05:09:50;;;;;;;5.03;2.60;;;;;;;20.14;62.57;100269.22;1781015;80;21121;-70
2022/07/09 05:12:20;;;;;;;4.65;2.52;;;;;;;20.16;62.66;100267.59;1792825;80;21013;-70
2022/07/09 05:14:50;;;;;;;6.83;3.50;;;;;;;20.18;62.30;100257.04;1792973;80;21040;-68
2022/07/09 05:17:21;;;;;;;5.78;2.83;;;;;;;20.23;62.07;100252.91;1795139;80;21037;-70
2022/07/09 05:19:51;;;;;;;2.92;2.10;;;;;;;20.24;62.00;100246.24;1779685;80;21098;-70
2022/07/09 05:22:22;;;;;;;2.42;2.12;;;;;;;20.27;61.86;100222.06;1794431;80;21057;-69
2022/07/09 05:24:52;;;;;;;4.22;2.42;;;;;;;20.30;61.77;100214.57;1792895;80;21049;-69
2022/07/09 05:27:23;;;;;;;4.67;2.40;;;;;;;20.32;61.75;100206.80;1763665;80;21647;-70
2022/07/09 05:29:53;;;;;;;3.70;2.12;;;;;;;20.33;61.81;100205.69;1763402;80;21038;-70
2022/07/09 05:32:23;;;;;;;5.05;2.52;;;;;;;20.35;61.81;100206.27;1779841;80;21077;-70
2022/07/09 05:34:55;;;;;;;5.00;2.47;;;;;;;20.36;61.77;100200.98;1795867;80;21018;-69
2022/07/09 05:37:25;;;;;;;3.95;2.77;;;;;;;20.38;61.83;100193.76;1790916;80;20999;-70
2022/07/09 05:39:58;;;;;;;4.92;2.60;;;;;;;20.37;61.92;100197.09;1794146;80;21061;-69
2022/07/09 05:42:27;;;;;;;4.85;3.15;;;;;;;20.37;62.07;100205.99;1764934;80;21049;-70
2022/07/09 05:44:57;;;;;;;6.58;2.75;;;;;;;20.34;62.12;100205.98;1792343;80;20998;-71
2022/07/09 05:47:27;;;;;;;4.72;2.80;;;;;;;20.34;62.37;100208.76;1771888;80;21097;-69
2022/07/09 05:49:57;;;;;;;3.75;2.80;;;;;;;20.36;62.88;100207.94;1790710;80;21112;-70
2022/07/09 05:52:28;;;;;;;4.87;2.90;;;;;;;20.37;63.72;100198.48;1791129;79;21068;-71
2022/07/09 05:54:59;;;;;;;4.17;3.12;;;;;;;20.34;64.27;100193.45;1787111;80;21011;-71
2022/07/09 05:57:31;;;;;;;4.85;2.60;;;;;;;20.33;64.96;100186.21;1788961;79;21113;-72
2022/07/09 06:00:03;;;;;;;3.60;2.72;;;;;;;20.29;65.41;100173.94;1773548;80;21462;-73
2022/07/09 06:02:33;;;;;;;4.12;3.00;;;;;;;20.25;65.30;100163.06;1792589;80;20983;-73
2022/07/09 06:05:05;;;;;;;6.12;2.60;;;;;;;20.17;65.94;100142.69;1721396;82;21094;-75
2022/07/09 06:07:36;;;;;;;4.40;2.30;;;;;;;20.10;66.42;100136.48;1734511;82;21078;-72
2022/07/09 06:10:08;;;;;;;3.58;2.67;;;;;;;20.05;66.60;100126.72;1714704;82;21481;-75
2022/07/09 06:12:40;;;;;;;5.12;2.67;;;;;;;19.99;67.20;100133.34;1711312;82;21023;-74
2022/07/09 06:15:11;;;;;;;6.53;2.92;;;;;;;19.94;67.13;100129.41;1722678;82;21082;-74
2022/07/09 06:17:41;;;;;;;5.30;3.10;;;;;;;19.90;67.51;100119.93;1713127;82;21038;-74
2022/07/09 06:20:11;;;;;;;4.65;2.95;;;;;;;19.82;68.53;100103.73;1726779;82;21139;-75
2022/07/09 06:22:41;;;;;;;6.17;2.60;;;;;;;19.78;68.71;100105.37;1745005;80;21081;-74
2022/07/09 06:25:13;;;;;;;4.62;3.00;;;;;;;19.76;68.75;100118.70;1793815;79;20998;-73
2022/07/09 06:27:45;;;;;;;4.33;2.92;;;;;;;19.75;69.38;100103.12;1725155;82;21169;-75
2022/07/09 06:30:15;;;;;;;3.85;2.90;;;;;;;19.74;70.18;100105.62;1702247;82;21143;-73
2022/07/09 06:32:45;;;;;;;4.58;2.85;;;;;;;19.74;70.64;100093.11;1726525;82;21113;-73
2022/07/09 06:35:16;;;;;;;7.22;2.85;;;;;;;19.75;71.39;100108.69;1728745;82;21498;-73
2022/07/09 06:37:46;;;;;;;6.83;2.72;;;;;;;19.75;71.99;100110.63;1718816;82;21147;-72
2022/07/09 06:40:16;;;;;;;3.33;2.40;;;;;;;19.74;71.77;100109.79;1743233;82;21030;-74
2022/07/09 06:42:47;;;;;;;4.47;2.60;;;;;;;19.75;71.53;100118.97;1738368;82;21175;-71
2022/07/09 06:45:21;;;;;;;4.37;3.45;;;;;;;19.77;71.81;100130.11;1756845;80;21014;-73
2022/07/09 06:47:52;;;;;;;4.03;2.50;;;;;;;19.76;71.48;100137.33;1795912;80;21045;-72
2022/07/09 06:50:22;;;;;;;3.35;2.37;;;;;;;19.77;70.61;100143.17;1795344;80;21002;-73
2022/07/09 06:52:53;;;;;;;3.22;2.55;;;;;;;19.80;70.53;100153.77;1785940;79;21365;-73
2022/07/09 06:55:23;;;;;;;4.28;2.40;;;;;;;19.82;70.23;100150.17;1796673;80;21503;-73
2022/07/09 06:57:53;;;;;;;5.72;2.62;;;;;;;19.84;70.19;100151.58;1795814;80;21030;-72
2022/07/09 07:00:23;;;;;;;4.37;2.55;;;;;;;19.84;70.19;100169.66;1794624;80;21053;-71
2022/07/09 07:02:59;;;;;;;4.30;2.33;;;;;;;19.82;70.05;100169.08;1797294;80;21057;-72
2022/07/09 07:05:26;;;;;;;3.70;2.67;;;;;;;19.82;70.27;100157.95;1798715;79;21570;-72
2022/07/09 07:07:55;;;;;;;2.58;2.37;;;;;;;19.84;70.92;100149.35;1783791;79;20982;-71
2022/07/09 07:10:26;;;;;;;3.80;2.42;;;;;;;19.82;70.59;100144.05;1776439;79;21016;-72
2022/07/09 07:12:58;;;;;;;5.87;2.67;;;;;;;19.82;70.59;100137.66;1792505;80;21446;-72
2022/07/09 07:15:28;;;;;;;3.27;2.55;;;;;;;19.79;70.17;100150.70;1783420;80;21006;-71
2022/07/09 07:17:58;;;;;;;4.25;2.45;;;;;;;19.78;70.68;100174.88;1795745;80;21461;-70
2022/07/09 07:20:28;;;;;;;2.60;1.90;;;;;;;19.76;70.33;100170.69;1795658;80;21060;-71
2022/07/09 07:22:58;;;;;;;2.80;2.52;;;;;;;19.79;70.49;100177.11;1789124;79;21030;-72
2022/07/09 07:25:28;;;;;;;2.90;2.40;;;;;;;19.78;71.46;100178.21;1786036;80;21005;-70
2022/07/09 07:27:58;;;;;;;3.25;2.60;;;;;;;19.77;71.50;100173.75;1795872;80;21065;-73
2022/07/09 07:30:32;;;;;;;2.55;2.35;;;;;;;19.75;72.21;100175.41;1789430;80;21038;-72
2022/07/09 07:33:01;;;;;;;3.77;2.00;;;;;;;19.76;72.12;100167.91;1793605;79;21032;-73
2022/07/09 07:35:33;;;;;;;3.33;2.35;;;;;;;19.81;71.61;100157.67;1735940;82;21056;-73
2022/07/09 07:38:02;;;;;;;3.50;2.40;;;;;;;19.80;71.93;100157.94;1713082;82;21091;-72
2022/07/09 07:40:32;;;;;;;3.12;2.50;;;;;;;19.80;71.94;100153.77;1727297;82;21021;-73
2022/07/09 07:43:05;;;;;;;3.27;2.42;;;;;;;19.77;71.67;100164.02;1736452;82;21524;-72
2022/07/09 07:45:35;;;;;;;5.80;2.40;;;;;;;19.75;72.22;100164.28;1704271;82;21046;-73
2022/07/09 07:48:06;;;;;;;7.92;2.65;;;;;;;19.78;72.13;100157.36;1730025;82;21057;-68
2022/07/09 07:50:38;;;;;;;3.90;2.50;;;;;;;19.84;72.16;100155.75;1723176;82;21058;-70
2022/07/09 07:53:07;;;;;;;4.25;2.67;;;;;;;19.87;71.85;100149.66;1690792;85;21118;-69
2022/07/09 07:55:37;;;;;;;4.00;2.60;;;;;;;19.85;72.25;100137.12;1684170;84;21085;-68
2022/07/09 07:58:06;;;;;;;7.92;2.77;;;;;;;19.82;72.17;100125.98;1680385;84;21046;-69
2022/07/09 08:00:37;;;;;;;3.92;2.70;;;;;;;19.80;72.52;100121.80;1729755;81;21049;-69
2022/07/09 08:03:08;;;;;;;3.37;2.12;;;;;;;19.81;72.52;100112.34;1729860;82;21014;-69
2022/07/09 08:05:39;;;;;;;2.92;2.30;;;;;;;19.82;72.43;100119.03;1756524;81;21042;-70
2022/07/09 08:08:09;;;;;;;4.72;2.50;;;;;;;19.82;72.54;100110.69;1755645;81;21053;-69
2022/07/09 08:10:39;;;;;;;3.90;2.20;;;;;;;19.80;72.14;100110.67;1724619;83;21481;-69
2022/07/09 08:13:18;;;;;;;3.95;2.30;;;;;;;19.78;72.41;100113.72;1738159;82;21540;-66
2022/07/09 08:15:49;;;;;;;2.87;2.50;;;;;;;19.76;72.60;100110.91;1758316;81;21033;-65
2022/07/09 08:18:18;;;;;;;3.42;2.17;;;;;;;19.79;72.26;100111.77;1757777;81;21014;-65
2022/07/09 08:20:51;;;;;;;2.25;2.00;;;;;;;19.87;72.06;100113.52;1757244;81;21788;-71
2022/07/09 08:23:20;;;;;;;2.75;2.40;;;;;;;19.89;71.15;100109.07;1756440;81;21042;-61
2022/07/09 08:25:50;;;;;;;4.90;2.30;;;;;;;19.87;70.87;100105.17;1749976;81;21021;-60
2022/07/09 08:28:20;;;;;;;3.60;2.33;;;;;;;19.86;70.67;100104.88;1736833;81;21451;-62
2022/07/09 08:30:50;;;;;;;2.72;2.12;;;;;;;19.85;70.50;100099.59;1749785;81;21082;-62
2022/07/09 08:33:19;;;;;;;3.17;2.27;;;;;;;19.86;70.37;100099.32;1754842;81;21033;-62
2022/07/09 08:35:49;;;;;;;4.60;2.50;;;;;;;19.88;70.38;100104.06;1754583;81;21039;-61
2022/07/09 08:38:18;;;;;;;3.33;2.33;;;;;;;19.94;70.70;100109.95;1745884;81;21434;-60
2022/07/09 08:40:47;;;;;;;2.92;2.00;;;;;;;19.99;70.58;100114.71;1749502;81;21077;-63
2022/07/09 08:43:17;;;;;;;5.28;2.85;;;;;;;20.06;70.13;100114.48;1749168;81;21026;-61
2022/07/09 08:45:47;;;;;;;7.70;2.37;;;;;;;20.09;69.65;100109.77;1742795;80;21005;-62
2022/07/09 08:48:18;;;;;;;2.27;1.95;;;;;;;20.10;69.05;100108.67;1768472;81;21049;-65
2022/07/09 08:50:51;;;;;;;3.25;2.00;;;;;;;20.11;69.07;100107.56;1651733;85;21081;-61
2022/07/09 08:53:22;;;;;;;7.17;2.52;;;;;;;20.12;68.36;100106.45;1673838;85;21064;-63
2022/07/09 08:55:52;;;;;;;4.10;2.25;;;;;;;20.10;68.06;100101.16;1640060;85;21050;-61
2022/07/09 08:58:21;;;;;;;3.40;2.00;;;;;;;20.09;67.51;100101.43;1660742;85;21571;-64
2022/07/09 09:00:51;;;;;;;4.80;2.10;;;;;;;20.09;67.91;100104.21;1655373;85;21048;-61
2022/07/09 09:03:20;;;;;;;3.25;1.90;;;;;;;20.10;68.38;100099.77;1660872;85;21052;-62
2022/07/09 09:06:08;;;;;;;2.55;2.00;;;;;;;20.16;68.03;100107.63;1639903;85;21110;-63
2022/07/09 09:08:42;;;;;;;4.95;2.00;;;;;;;20.19;67.94;100105.15;1695290;81;21459;-63
2022/07/09 09:11:22;;;;;;;2.83;2.12;;;;;;;20.18;67.58;100097.91;1750245;81;21040;-61
2022/07/09 09:13:54;;;;;;;2.98;2.10;;;;;;;20.17;68.34;100099.57;1738580;81;21053;-62
2022/07/09 09:16:24;;;;;;;4.87;2.40;;;;;;;20.19;68.81;100104.31;1749281;81;21526;-61
2022/07/09 09:18:55;;;;;;;2.70;2.00;;;;;;;20.19;68.68;100101.53;1756917;81;21662;-62
2022/07/09 09:21:27;;;;;;;2.37;1.92;;;;;;;20.20;68.52;100101.26;1755767;81;21070;-61
2022/07/09 09:23:59;;;;;;;4.83;2.10;;;;;;;20.19;68.33;100104.31;1743288;82;21524;-61
2022/07/09 09:26:30;;;;;;;2.58;2.00;;;;;;;20.17;68.21;100099.02;1754840;82;21046;-65
2022/07/09 09:29:02;;;;;;;2.85;2.12;;;;;;;20.12;68.30;100093.39;1743525;82;21071;-63
2022/07/09 09:31:36;;;;;;;3.75;2.10;;;;;;;20.12;69.08;100089.77;1751316;82;21090;-63
2022/07/09 09:34:15;;;;;;;2.50;2.02;;;;;;;20.15;69.01;100081.72;1742845;82;21523;-61
2022/07/09 09:36:55;;;;;;;3.50;1.95;;;;;;;20.20;69.46;100079.00;1742691;82;21102;-61
2022/07/09 09:39:24;;;;;;;5.90;2.12;;;;;;;20.22;69.50;100070.39;1734643;81;21050;-61
2022/07/09 09:42:02;;;;;;;3.60;2.33;;;;;;;20.28;69.39;100074.87;1734433;81;21019;-60
2022/07/09 09:44:40;;;;;;;2.58;2.22;;;;;;;20.29;68.74;100071.54;1735187;81;21093;-62
2022/07/09 09:47:11;;;;;;;4.85;2.27;;;;;;;20.28;69.09;100065.69;1735710;81;21097;-61
2022/07/09 09:49:42;;;;;;;4.85;2.35;;;;;;;20.32;68.86;100062.09;1721153;81;21098;-64
2022/07/09 09:52:13;;;;;;;3.27;2.55;;;;;;;20.32;68.57;100064.88;1703082;82;21099;-60
2022/07/09 09:54:47;;;;;;;2.85;2.20;;;;;;;20.34;68.65;100070.17;1717481;83;21078;-64
2022/07/09 09:57:19;;;;;;;4.47;2.40;;;;;;;20.38;68.28;100068.53;1704729;82;21050;-60
2022/07/09 09:59:51;;;;;;;2.77;2.10;;;;;;;20.41;68.13;100066.08;1749667;81;21447;-62
2022/07/09 10:02:24;;;;;;;3.02;2.40;;;;;;;20.44;68.04;100077.22;1763395;81;21014;-60
2022/07/09 10:04:54;;;;;;;5.55;2.70;;;;;;;20.45;67.58;100083.91;1768561;81;21073;-61
2022/07/09 10:07:25;;;;;;;3.20;2.47;;;;;;;20.42;67.80;100081.66;1763443;81;21065;-60
2022/07/09 10:09:59;;;;;;;3.22;2.42;;;;;;;20.43;67.91;100076.94;1767748;81;21046;-61
2022/07/09 10:12:35;;;;;;;4.62;2.27;;;;;;;20.40;67.85;100075.53;1761264;81;21537;-64
2022/07/09 10:15:21;;;;;;;4.35;2.27;;;;;;;20.37;68.00;100075.20;1761913;81;21106;-61
2022/07/09 10:17:51;;;;;;;5.95;2.70;;;;;;;20.28;68.13;100069.86;1762990;81;21513;-67
2022/07/09 10:20:34;;;;;;;3.95;2.20;;;;;;;20.25;68.42;100067.07;1743500;81;21010;-62
2022/07/09 10:23:05;;;;;;;4.22;2.42;;;;;;;20.23;68.51;100070.67;1762640;81;21030;-62
2022/07/09 10:25:46;;;;;;;6.10;2.55;;;;;;;20.21;68.49;100068.72;1759741;81;21030;-61
2022/07/09 10:28:19;;;;;;;4.62;2.37;;;;;;;20.19;68.83;100067.59;1768683;81;20987;-62
2022/07/09 10:30:49;;;;;;;5.47;2.87;;;;;;;20.20;69.16;100074.83;1760469;81;21103;-62
2022/07/09 10:33:35;;;;;;;4.25;2.85;;;;;;;20.26;69.43;100076.53;1766815;81;21141;-61
2022/07/09 10:36:14;;;;;;;3.27;2.47;;;;;;;20.32;69.53;100078.80;1758387;81;21978;-64
2022/07/09 10:38:59;;;;;;;3.80;3.15;;;;;;;20.33;69.41;100081.02;1678848;84;21114;-63
2022/07/09 10:41:27;;;;;;;6.33;2.60;;;;;;;20.31;69.83;100075.73;1758868;81;21109;-60
2022/07/09 10:43:57;;;;;;;3.70;2.62;;;;;;;20.29;70.12;100085.45;1759001;81;21054;-61
2022/07/09 10:46:28;;;;;;;2.37;2.17;;;;;;;20.32;69.95;100086.30;1758065;81;21066;-62
2022/07/09 10:48:59;;;;;;;3.42;2.60;;;;;;;20.31;70.22;100085.47;1745344;81;21094;-62
2022/07/09 10:51:31;;;;;;;4.70;2.80;;;;;;;20.33;70.38;100086.03;1726708;82;21066;-61
2022/07/09 10:54:00;;;;;;;5.45;2.90;;;;;;;20.35;70.12;100097.73;1748046;81;21050;-61
2022/07/09 10:56:31;;;;;;;3.65;2.70;;;;;;;20.38;69.93;100094.41;1758139;81;21068;-63
2022/07/09 10:59:02;;;;;;;4.37;2.77;;;;;;;20.40;69.43;100098.34;1753508;81;21447;-63
2022/07/09 11:01:32;;;;;;;4.08;2.65;;;;;;;20.37;69.10;100094.13;1740407;81;21069;-61
2022/07/09 11:04:03;;;;;;;2.85;2.40;;;;;;;20.36;69.09;100095.79;1728599;81;21734;-64
2022/07/09 11:06:33;;;;;;;4.15;2.40;;;;;;;20.37;68.75;100089.95;1743954;81;21572;-65
2022/07/09 11:09:15;;;;;;;8.85;3.55;;;;;;;20.37;68.54;100089.95;1743479;81;21063;-66
2022/07/09 11:11:51;;;;;;;4.55;2.60;;;;;;;20.35;68.10;100095.50;1743421;81;21022;-63
2022/07/09 11:14:17;;;;;;;5.25;3.05;;;;;;;20.35;68.07;100102.46;1756951;81;21016;-66
2022/07/09 11:16:58;;;;;;;6.42;2.90;;;;;;;20.37;68.25;100095.52;1732977;81;21038;-64
2022/07/09 11:19:31;;;;;;;9.25;3.08;;;;;;;20.40;68.00;100092.23;1745309;81;22106;-64
2022/07/09 11:22:02;;;;;;;4.25;2.40;;;;;;;20.43;67.49;100092.24;1740237;81;21060;-58
2022/07/09 11:24:32;;;;;;;3.75;2.22;;;;;;;20.45;67.38;100085.30;1756496;81;21479;-64
2022/07/09 11:27:06;;;;;;;6.42;2.83;;;;;;;20.47;67.22;100090.03;1758525;81;21030;-62
2022/07/09 11:29:36;;;;;;;4.45;2.67;;;;;;;20.47;67.25;100087.80;1758890;81;21085;-63
2022/07/09 11:32:06;;;;;;;2.47;2.27;;;;;;;20.49;67.23;100092.00;1758626;80;21030;-63
2022/07/09 11:34:37;;;;;;;5.67;2.80;;;;;;;20.53;67.18;100087.56;1746486;81;21069;-62
2022/07/09 11:37:09;;;;;;;5.50;2.62;;;;;;;20.58;66.67;100088.98;1707230;82;21104;-63
2022/07/09 11:39:40;;;;;;;4.97;2.47;;;;;;;20.58;66.33;100094.55;1724927;81;21035;-64
2022/07/09 11:42:12;;;;;;;3.17;2.20;;;;;;;20.62;65.99;100093.45;1714954;82;21459;-65